Time;durP1;ratioP1;P1;durP2;ratioP2;P2;SDS_P1;SDS_P2;PMS_P1;PMS_P2;Temp;Humidity;BMP_temperature;BMP_pressure;BME280_temperature;BME280_humidity;BME280_pressure;Samples;Min_cycle;Max_cycle;Signal;HPM_P1;HPM_P2
2023/10/21 00:09:55;;;;;;;3.47;2.40;;;;;;;;;;20910271;28;20239;-64
2023/10/21 00:19:59;;;;;;;2.97;2.00;;;;;;;;;;20907251;28;20220;-65
2023/10/21 00:30:01;;;;;;;2.67;1.53;;;;;;;;;;20910335;28;20322;-63
2023/10/21 00:40:04;;;;;;;2.30;1.30;;;;;;;;;;20929131;28;20212;-64
2023/10/21 00:50:06;;;;;;;1.83;1.20;;;;;;;;;;20928003;28;20594;-64
2023/10/21 01:00:12;;;;;;;1.47;1.10;;;;;;;;;;20927192;28;20685;-63
2023/10/21 01:10:14;;;;;;;2.57;1.20;;;;;;;;;;20926466;28;20335;-65
2023/10/21 01:20:19;;;;;;;2.00;1.00;;;;;;;;;;20925638;28;20205;-64
2023/10/21 01:30:21;;;;;;;0.83;0.83;;;;;;;;;;20924938;28;20236;-65
2023/10/21 01:40:24;;;;;;;1.37;0.90;;;;;;;;;;20924348;28;20204;-63
2023/10/21 01:50:28;;;;;;;1.50;0.90;;;;;;;;;;20928343;28;20234;-65
2023/10/21 02:00:30;;;;;;;1.00;0.97;;;;;;;;;;20962537;28;20616;-66
2023/10/21 02:10:32;;;;;;;3.47;0.90;;;;;;;;;;20957979;28;20716;-63
2023/10/21 02:20:34;;;;;;;1.23;0.87;;;;;;;;;;20926497;28;20618;-64
2023/10/21 02:30:36;;;;;;;0.80;0.77;;;;;;;;;;20956318;28;20239;-65
2023/10/21 02:40:42;;;;;;;0.70;0.70;;;;;;;;;;20919869;28;20215;-64
2023/10/21 02:50:44;;;;;;;1.37;0.60;;;;;;;;;;20918438;28;20263;-64
2023/10/21 03:00:48;;;;;;;1.27;0.83;;;;;;;;;;20917524;28;20207;-64
2023/10/21 03:10:50;;;;;;;0.60;0.60;;;;;;;;;;20917509;28;20645;-64
2023/10/21 03:20:53;;;;;;;2.93;1.90;;;;;;;;;;20916194;28;20207;-64
2023/10/21 03:30:58;;;;;;;1.23;0.80;;;;;;;;;;20915252;28;20286;-65
2023/10/21 03:41:03;;;;;;;5.00;1.70;;;;;;;;;;20915061;28;20213;-63
2023/10/21 03:51:06;;;;;;;1.87;0.80;;;;;;;;;;20935784;28;20323;-64
2023/10/21 04:01:09;;;;;;;0.97;0.90;;;;;;;;;;20916547;28;20597;-64
2023/10/21 04:11:11;;;;;;;1.00;0.90;;;;;;;;;;20912301;28;20232;-64
2023/10/21 04:21:13;;;;;;;1.47;0.50;;;;;;;;;;20912271;28;20211;-64
2023/10/21 04:31:16;;;;;;;2.73;1.43;;;;;;;;;;20911932;28;20290;-64
2023/10/21 04:41:18;;;;;;;0.97;0.80;;;;;;;;;;20911886;28;20217;-64
2023/10/21 04:51:20;;;;;;;1.17;0.70;;;;;;;;;;20911142;28;20320;-64
2023/10/21 05:01:22;;;;;;;1.63;1.10;;;;;;;;;;20910766;28;20231;-64
2023/10/21 05:11:24;;;;;;;1.10;0.70;;;;;;;;;;20928635;28;20283;-64
2023/10/21 05:21:26;;;;;;;1.23;0.60;;;;;;;;;;20955171;28;20219;-65
2023/10/21 05:31:29;;;;;;;1.63;0.90;;;;;;;;;;20995746;28;20267;-70
2023/10/21 05:41:31;;;;;;;4.20;1.00;;;;;;;;;;20924566;28;20205;-67
2023/10/21 05:51:33;;;;;;;3.63;2.00;;;;;;;;;;20959763;28;20233;-68
2023/10/21 06:01:35;;;;;;;2.43;0.80;;;;;;;;;;21005091;28;20309;-66
2023/10/21 06:11:37;;;;;;;1.10;0.70;;;;;;;;;;21004523;28;20692;-67
2023/10/21 06:21:40;;;;;;;3.40;0.80;;;;;;;;;;21001479;28;20239;-68
2023/10/21 06:31:42;;;;;;;1.13;0.70;;;;;;;;;;20986115;28;20248;-68
2023/10/21 06:41:45;;;;;;;1.77;0.60;;;;;;;;;;21001501;28;20553;-85
2023/10/21 06:51:49;;;;;;;0.93;0.83;;;;;;;;;;21001481;28;20330;-75
2023/10/21 07:01:52;;;;;;;1.37;0.60;;;;;;;;;;20999512;28;20227;-76
2023/10/21 07:11:54;;;;;;;3.00;2.60;;;;;;;;;;20999436;28;20238;-71
2023/10/21 07:21:56;;;;;;;0.90;0.83;;;;;;;;;;20998836;28;20214;-74
2023/10/21 07:31:58;;;;;;;2.20;1.30;;;;;;;;;;20997937;28;20241;-68
2023/10/21 07:42:00;;;;;;;0.70;0.70;;;;;;;;;;20994800;28;20214;-67
2023/10/21 07:52:03;;;;;;;0.53;0.53;;;;;;;;;;20996879;28;20231;-68
2023/10/21 08:02:06;;;;;;;0.70;0.70;;;;;;;;;;20995843;28;20239;-69
2023/10/21 08:12:08;;;;;;;0.83;0.60;;;;;;;;;;20995765;28;20245;-66
2023/10/21 08:22:10;;;;;;;0.67;0.57;;;;;;;;;;20995816;28;20220;-68
2023/10/21 08:32:12;;;;;;;0.60;0.60;;;;;;;;;;20994796;28;20608;-67
2023/10/21 08:42:17;;;;;;;1.43;0.60;;;;;;;;;;20994292;28;20199;-67
2023/10/21 08:52:19;;;;;;;0.50;0.50;;;;;;;;;;20996542;28;20238;-72
2023/10/21 09:02:21;;;;;;;0.60;0.43;;;;;;;;;;21010719;28;20298;-70
2023/10/21 09:12:24;;;;;;;4.13;0.60;;;;;;;;;;21011666;28;20698;-69
2023/10/21 09:22:27;;;;;;;0.57;0.43;;;;;;;;;;21008503;28;20257;-69
2023/10/21 09:32:30;;;;;;;0.37;0.30;;;;;;;;;;21006692;28;20755;-69
2023/10/21 09:42:33;;;;;;;0.43;0.43;;;;;;;;;;21006973;28;20214;-73
2023/10/21 09:52:39;;;;;;;1.73;0.60;;;;;;;;;;21006642;28;20234;-71
2023/10/21 10:02:47;;;;;;;1.70;0.70;;;;;;;;;;21005288;28;20239;-72
2023/10/21 10:12:49;;;;;;;1.27;0.80;;;;;;;;;;21003723;28;20254;-63
2023/10/21 10:23:02;;;;;;;0.73;0.60;;;;;;;;;;21065889;28;20209;-73
2023/10/21 10:33:12;;;;;;;0.77;0.60;;;;;;;;;;21013781;28;20242;-68
2023/10/21 10:43:17;;;;;;;1.07;0.60;;;;;;;;;;20970279;28;20568;-72
2023/10/21 10:53:20;;;;;;;3.53;0.60;;;;;;;;;;20930650;28;20300;-68
2023/10/21 11:03:27;;;;;;;1.33;0.60;;;;;;;;;;20946759;28;20589;-68
2023/10/21 11:13:30;;;;;;;0.70;0.70;;;;;;;;;;20916918;28;20316;-69
2023/10/21 11:23:32;;;;;;;1.57;0.70;;;;;;;;;;20916441;28;20242;-68
2023/10/21 11:33:34;;;;;;;1.67;0.60;;;;;;;;;;20925623;28;20263;-70
2023/10/21 11:43:36;;;;;;;0.60;0.60;;;;;;;;;;20995634;28;20287;-70
2023/10/21 11:53:38;;;;;;;2.80;0.60;;;;;;;;;;20996487;28;20332;-70
2023/10/21 12:44:41;;;;;;;2.60;0.83;;;;;;;;;;20996574;28;20211;-70
2023/10/21 12:54:44;;;;;;;1.90;0.90;;;;;;;;;;20994930;28;20231;-70
2023/10/21 13:04:46;;;;;;;1.40;0.70;;;;;;;;;;20993400;28;20319;-70
2023/10/21 13:14:48;;;;;;;1.43;0.60;;;;;;;;;;20975413;28;20239;-71
2023/10/21 13:24:51;;;;;;;2.27;1.10;;;;;;;;;;20993203;28;20705;-68
2023/10/21 13:35:14;;;;;;;1.53;0.87;;;;;;;;;;20992639;28;20239;-70
2023/10/21 13:45:21;;;;;;;2.10;0.70;;;;;;;;;;21002704;28;20199;-71
2023/10/21 13:55:24;;;;;;;1.13;0.70;;;;;;;;;;20988449;28;20239;-68
2023/10/21 14:05:27;;;;;;;2.07;0.70;;;;;;;;;;21005529;28;20237;-70
2023/10/21 14:15:30;;;;;;;1.93;0.97;;;;;;;;;;21004523;28;20330;-70
2023/10/21 14:25:33;;;;;;;2.20;0.70;;;;;;;;;;20980760;28;20668;-70
2023/10/21 14:35:35;;;;;;;2.37;1.30;;;;;;;;;;20981924;28;20239;-70
2023/10/21 14:45:39;;;;;;;3.57;0.80;;;;;;;;;;21002020;28;20655;-69
2023/10/21 14:55:46;;;;;;;1.80;1.23;;;;;;;;;;21000919;28;20262;-69
2023/10/21 15:05:59;;;;;;;1.57;0.90;;;;;;;;;;21000867;28;20645;-68
2023/10/21 15:16:02;;;;;;;3.63;1.10;;;;;;;;;;20951406;28;20241;-71
2023/10/21 15:26:17;;;;;;;1.40;1.00;;;;;;;;;;20946245;28;20216;-70
2023/10/21 15:36:19;;;;;;;1.53;1.07;;;;;;;;;;20947786;28;20234;-68
2023/10/21 15:46:22;;;;;;;1.90;0.90;;;;;;;;;;20997434;28;20286;-70
2023/10/21 15:56:25;;;;;;;2.60;1.40;;;;;;;;;;20996454;28;20640;-70
2023/10/21 16:06:29;;;;;;;2.27;1.00;;;;;;;;;;20995806;28;20652;-69
2023/10/21 16:16:31;;;;;;;3.73;1.70;;;;;;;;;;20996390;28;20243;-68
2023/10/21 16:26:33;;;;;;;3.93;2.03;;;;;;;;;;20995631;28;20684;-70
2023/10/21 16:36:35;;;;;;;5.57;1.73;;;;;;;;;;20995148;28;20619;-70
2023/10/21 16:46:40;;;;;;;5.00;1.30;;;;;;;;;;20976447;28;20214;-70
2023/10/21 16:56:42;;;;;;;3.03;1.63;;;;;;;;;;20994959;28;20666;-71
2023/10/21 17:06:45;;;;;;;3.60;1.73;;;;;;;;;;20953345;28;20601;-70
2023/10/21 17:16:47;;;;;;;5.30;2.80;;;;;;;;;;20920734;28;20211;-70
2023/10/21 17:26:49;;;;;;;2.87;2.13;;;;;;;;;;20945392;28;20247;-70
2023/10/21 17:36:52;;;;;;;1.53;1.33;;;;;;;;;;20962482;28;20214;-70
2023/10/21 17:46:54;;;;;;;4.17;1.80;;;;;;;;;;20988192;28;20263;-70
2023/10/21 17:56:56;;;;;;;3.43;1.67;;;;;;;;;;21004656;28;20219;-70
2023/10/21 18:06:59;;;;;;;4.13;1.50;;;;;;;;;;20965575;28;20621;-69
2023/10/21 18:17:01;;;;;;;6.70;2.77;;;;;;;;;;20921544;28;20563;-69
2023/10/21 18:27:04;;;;;;;4.57;3.00;;;;;;;;;;20919423;28;20236;-69
2023/10/21 18:37:06;;;;;;;4.00;2.20;;;;;;;;;;20959853;28;20313;-68
2023/10/21 18:47:08;;;;;;;4.60;3.40;;;;;;;;;;21002356;28;20267;-69
2023/10/21 18:57:10;;;;;;;3.40;2.13;;;;;;;;;;20953493;28;20470;-68
2023/10/21 19:07:12;;;;;;;3.30;1.90;;;;;;;;;;20916480;28;20329;-70
2023/10/21 19:17:14;;;;;;;9.87;1.83;;;;;;;;;;20916701;28;20670;-67
2023/10/21 19:27:17;;;;;;;1.87;1.30;;;;;;;;;;20925965;28;20231;-68
2023/10/21 19:37:19;;;;;;;2.27;1.60;;;;;;;;;;20977071;28;20211;-69
2023/10/21 19:47:23;;;;;;;5.13;1.67;;;;;;;;;;20997443;28;20573;-68
2023/10/21 19:57:25;;;;;;;3.53;2.17;;;;;;;;;;20997169;28;20216;-75
2023/10/21 20:07:27;;;;;;;5.30;2.77;;;;;;;;;;20969338;28;20249;-70
2023/10/21 20:17:29;;;;;;;5.77;3.60;;;;;;;;;;20995724;28;20571;-69
2023/10/21 20:27:33;;;;;;;5.50;2.60;;;;;;;;;;20995249;28;20227;-68
2023/10/21 20:37:35;;;;;;;4.53;2.93;;;;;;;;;;20994908;28;20647;-72
2023/10/21 20:47:37;;;;;;;5.90;3.40;;;;;;;;;;20995225;28;20701;-71
2023/10/21 20:57:39;;;;;;;4.83;2.97;;;;;;;;;;21010825;28;20570;-69
2023/10/21 21:07:42;;;;;;;4.60;3.30;;;;;;;;;;20998092;28;20255;-76
2023/10/21 21:17:54;;;;;;;4.17;3.20;;;;;;;;;;21001445;28;20203;-69
2023/10/21 21:27:57;;;;;;;6.90;3.80;;;;;;;;;;21008506;28;20233;-69
2023/10/21 21:37:59;;;;;;;6.30;3.70;;;;;;;;;;21007927;28;20211;-68
2023/10/21 21:48:03;;;;;;;12.30;4.20;;;;;;;;;;21006884;28;20242;-69
2023/10/21 21:58:05;;;;;;;8.00;3.80;;;;;;;;;;21006339;28;20214;-69
2023/10/21 22:08:07;;;;;;;5.17;2.87;;;;;;;;;;20995986;28;20249;-69
2023/10/21 22:18:10;;;;;;;3.33;2.80;;;;;;;;;;21004822;28;20203;-69
2023/10/21 22:28:12;;;;;;;8.23;3.23;;;;;;;;;;21003642;28;20230;-67
2023/10/21 22:38:14;;;;;;;7.10;3.10;;;;;;;;;;21003366;28;20207;-70
2023/10/21 22:48:18;;;;;;;7.23;3.13;;;;;;;;;;21002179;28;20245;-69
2023/10/21 22:58:20;;;;;;;5.67;3.00;;;;;;;;;;21001295;28;20218;-69
2023/10/21 23:08:22;;;;;;;8.17;3.20;;;;;;;;;;21000722;28;20344;-69
2023/10/21 23:18:25;;;;;;;4.60;3.07;;;;;;;;;;20997931;28;20680;-70
2023/10/21 23:28:27;;;;;;;4.60;3.30;;;;;;;;;;20997800;28;20594;-69
2023/10/21 23:38:30;;;;;;;8.80;3.20;;;;;;;;;;20998555;28;20212;-70
2023/10/21 23:48:32;;;;;;;4.20;3.17;;;;;;;;;;20997705;28;20296;-69
2023/10/21 23:58:37;;;;;;;4.60;3.57;;;;;;;;;;20996777;28;20241;-72
